Time;durP1;ratioP1;P1;durP2;ratioP2;P2;SDS_P1;SDS_P2;PMS_P1;PMS_P2;Temp;Humidity;BMP_temperature;BMP_pressure;BME280_temperature;BME280_humidity;BME280_pressure;Samples;Min_cycle;Max_cycle;Signal;HPM_P1;HPM_P2
2022/12/17 13:06:52;;;;;;;145.55;41.80;;;1.00;99.90;;;;;;5030607;28;20757;-68
2022/12/17 13:09:22;;;;;;;136.30;42.75;;;0.90;99.90;;;;;;5029828;28;20017;-69
2022/12/17 13:11:52;;;;;;;140.10;42.75;;;0.90;99.90;;;;;;5030785;28;20116;-67
2022/12/17 13:14:27;;;;;;;136.73;45.13;;;0.90;99.90;;;;;;5030257;28;20034;-68
2022/12/17 13:17:01;;;;;;;132.80;42.53;;;1.00;99.90;;;;;;5025916;28;20037;-68
2022/12/17 13:19:37;;;;;;;141.68;45.00;;;1.00;99.90;;;;;;5027155;28;20013;-68
2022/12/17 13:22:14;;;;;;;133.15;44.88;;;0.90;99.90;;;;;;5029218;28;20052;-68
2022/12/17 13:24:42;;;;;;;147.98;45.75;;;0.70;99.90;;;;;;5027128;28;20029;-67
2022/12/17 13:27:33;;;;;;;146.82;44.75;;;0.70;99.90;;;;;;5030603;28;20025;-67
2022/12/17 13:30:20;;;;;;;150.20;47.13;;;0.80;99.90;;;;;;5029129;28;20436;-68
2022/12/17 13:33:03;;;;;;;140.73;47.10;;;0.90;99.90;;;;;;5028874;28;20033;-67
2022/12/17 13:36:06;;;;;;;142.35;46.33;;;1.10;99.90;;;;;;5029142;28;20026;-68
2022/12/17 13:38:52;;;;;;;152.85;45.92;;;1.20;99.90;;;;;;5029503;28;20026;-67
2022/12/17 13:41:20;;;;;;;152.73;47.60;;;1.20;99.90;;;;;;5029967;28;20033;-68
2022/12/17 13:43:52;;;;;;;150.90;46.83;;;1.20;99.90;;;;;;5029585;28;20481;-68
2022/12/17 13:46:42;;;;;;;151.55;47.35;;;1.30;99.90;;;;;;5029683;28;20025;-68
2022/12/17 13:49:20;;;;;;;149.75;44.78;;;1.30;99.90;;;;;;5023965;28;20454;-67
2022/12/17 13:51:47;;;;;;;155.25;47.22;;;1.30;99.90;;;;;;5025437;28;20045;-68
2022/12/17 13:54:18;;;;;;;148.23;44.90;;;1.30;99.90;;;;;;5027380;28;20101;-68
2022/12/17 13:56:44;;;;;;;146.32;45.75;;;1.30;99.90;;;;;;5027830;28;20064;-68
2022/12/17 13:59:19;;;;;;;155.15;47.80;;;1.20;99.90;;;;;;5028836;28;20026;-68
2022/12/17 14:01:47;;;;;;;144.60;46.38;;;1.20;99.90;;;;;;5028126;28;20029;-68
2022/12/17 14:04:21;;;;;;;146.32;45.88;;;1.20;99.90;;;;;;5026854;28;20443;-66
2022/12/17 14:06:48;;;;;;;153.07;45.28;;;1.10;99.90;;;;;;5028542;28;20036;-67
2022/12/17 14:09:17;;;;;;;156.25;46.55;;;1.10;99.90;;;;;;5028352;28;20025;-68
2022/12/17 14:14:30;;;;;;;151.25;45.97;;;1.10;99.90;;;;;;5027833;28;20080;-68
2022/12/17 14:16:55;;;;;;;155.35;48.05;;;1.10;99.90;;;;;;5028004;28;20025;-68
2022/12/17 14:19:23;;;;;;;159.93;48.22;;;1.10;99.90;;;;;;5025993;28;20039;-68
2022/12/17 14:21:49;;;;;;;160.02;48.72;;;1.00;99.90;;;;;;5027737;28;20433;-68
2022/12/17 14:24:17;;;;;;;158.60;49.53;;;0.90;99.90;;;;;;5028728;28;20026;-68
2022/12/17 14:26:51;;;;;;;155.68;48.03;;;0.80;99.90;;;;;;5028511;28;20024;-68
2022/12/17 14:29:32;;;;;;;161.98;48.25;;;0.80;99.90;;;;;;5027951;28;20022;-67
2022/12/17 14:32:00;;;;;;;153.98;47.45;;;0.80;99.90;;;;;;5026729;28;20025;-68
2022/12/17 14:34:26;;;;;;;168.60;48.05;;;0.80;99.90;;;;;;5025509;28;20052;-67
2022/12/17 14:36:55;;;;;;;152.18;47.83;;;0.80;99.90;;;;;;5029105;28;20144;-68
2022/12/17 14:39:29;;;;;;;169.23;48.72;;;0.70;99.90;;;;;;5027949;28;20060;-67
2022/12/17 14:44:54;;;;;;;153.73;45.72;;;0.70;99.90;;;;;;5028446;28;20032;-68
2022/12/17 14:47:26;;;;;;;158.70;46.47;;;0.60;99.90;;;;;;5028661;28;20029;-68
2022/12/17 14:50:22;;;;;;;156.15;46.20;;;0.60;99.90;;;;;;5025194;28;20029;-68
2022/12/17 14:52:53;;;;;;;147.30;44.10;;;0.40;99.90;;;;;;5027140;28;20064;-68
2022/12/17 14:55:24;;;;;;;139.93;45.28;;;0.30;99.90;;;;;;5026612;28;20032;-68
2022/12/17 14:57:52;;;;;;;155.25;45.40;;;0.40;99.90;;;;;;5021815;28;20075;-68
2022/12/17 15:00:18;;;;;;;152.45;48.05;;;0.40;99.90;;;;;;5026320;28;20029;-68
2022/12/17 15:02:50;;;;;;;172.20;49.92;;;0.50;99.90;;;;;;5026023;28;20095;-68
2022/12/17 15:05:16;;;;;;;177.27;51.58;;;0.60;99.90;;;;;;5027086;28;20465;-68
2022/12/17 15:07:42;;;;;;;171.70;53.28;;;0.50;99.90;;;;;;5025669;28;20036;-67
2022/12/17 15:10:13;;;;;;;187.82;54.05;;;0.50;99.90;;;;;;5024611;28;20018;-67
2022/12/17 15:12:41;;;;;;;172.60;48.97;;;0.60;99.90;;;;;;5024592;28;20091;-67
2022/12/17 15:15:10;;;;;;;156.40;48.35;;;0.60;99.90;;;;;;5026355;28;20040;-68
2022/12/17 15:17:36;;;;;;;198.70;50.60;;;0.70;99.90;;;;;;5023487;28;20021;-68
2022/12/17 15:20:01;;;;;;;171.95;49.88;;;0.60;99.90;;;;;;5021790;28;20041;-67
2022/12/17 15:22:27;;;;;;;195.68;53.20;;;0.50;99.90;;;;;;5025663;28;20033;-70
2022/12/17 15:24:53;;;;;;;166.93;48.05;;;0.60;99.90;;;;;;5023564;28;20029;-68
2022/12/17 15:27:18;;;;;;;178.77;48.13;;;0.70;99.90;;;;;;5025127;28;20033;-67
2022/12/17 15:29:44;;;;;;;186.43;48.30;;;0.40;99.90;;;;;;5026222;28;20021;-68
2022/12/17 15:32:18;;;;;;;180.43;52.63;;;0.30;99.90;;;;;;5025887;28;20029;-68
2022/12/17 15:34:43;;;;;;;168.73;48.00;;;0.20;99.90;;;;;;5026075;28;20095;-67
2022/12/17 15:37:09;;;;;;;190.88;52.13;;;0.10;99.90;;;;;;5024627;28;20482;-68
2022/12/17 15:39:35;;;;;;;173.00;49.75;;;0.20;99.90;;;;;;5025345;28;20021;-67
2022/12/17 15:44:44;;;;;;;206.82;47.53;;;-0.10;99.90;;;;;;5029311;28;20064;-68
2022/12/17 15:47:10;;;;;;;157.15;42.15;;;-0.10;99.90;;;;;;5029674;28;20053;-68
2022/12/17 15:49:35;;;;;;;165.15;45.45;;;-0.10;99.90;;;;;;5027095;28;20100;-67
2022/12/17 15:52:01;;;;;;;162.63;44.80;;;-0.20;99.90;;;;;;5028055;28;20508;-69
2022/12/17 15:54:27;;;;;;;167.02;44.67;;;0.00;99.90;;;;;;5028123;28;20040;-68
2022/12/17 15:56:53;;;;;;;188.52;46.83;;;-0.10;99.90;;;;;;5029503;28;20032;-69
2022/12/17 15:59:19;;;;;;;185.98;46.75;;;-0.20;99.90;;;;;;5029373;28;20489;-69
2022/12/17 16:01:45;;;;;;;238.73;53.78;;;-0.40;99.90;;;;;;5031358;28;20052;-66
2022/12/17 16:04:10;;;;;;;179.57;47.22;;;-0.30;99.90;;;;;;5030887;28;20053;-68
2022/12/17 16:06:36;;;;;;;164.65;43.05;;;-0.30;99.90;;;;;;5029902;28;20379;-69
2022/12/17 16:09:01;;;;;;;177.52;47.53;;;-0.40;99.90;;;;;;5029685;28;20060;-68
2022/12/17 16:11:27;;;;;;;185.82;46.38;;;-0.30;99.90;;;;;;5027896;28;20033;-68
2022/12/17 16:13:54;;;;;;;185.50;45.08;;;-0.30;99.90;;;;;;5029431;28;20087;-68
2022/12/17 16:16:20;;;;;;;151.43;43.38;;;-0.30;99.90;;;;;;5029969;28;20482;-69
2022/12/17 16:18:45;;;;;;;153.68;41.17;;;-0.20;99.90;;;;;;5025840;28;20025;-68
2022/12/17 16:21:11;;;;;;;168.10;40.92;;;-0.30;99.90;;;;;;5027162;28;20548;-69
2022/12/17 16:23:37;;;;;;;168.82;43.05;;;-0.40;99.90;;;;;;5029194;28;20037;-69
2022/12/17 16:26:06;;;;;;;189.43;44.13;;;-0.30;99.90;;;;;;5029129;28;20500;-67
2022/12/17 16:28:33;;;;;;;226.75;48.78;;;-0.20;99.90;;;;;;5028626;28;20045;-68
2022/12/17 16:31:04;;;;;;;203.82;47.70;;;-0.40;99.90;;;;;;5029557;28;20025;-68
2022/12/17 16:33:39;;;;;;;168.38;45.05;;;-0.30;99.90;;;;;;5029632;28;20366;-68
2022/12/17 16:36:06;;;;;;;199.73;48.42;;;-0.30;99.90;;;;;;5031149;28;20120;-67
2022/12/17 16:38:32;;;;;;;186.55;46.72;;;-0.20;99.90;;;;;;5027011;28;20029;-68
2022/12/17 16:41:00;;;;;;;183.70;45.22;;;0.00;99.90;;;;;;5028678;28;20481;-67
2022/12/17 16:43:27;;;;;;;182.63;43.83;;;0.00;99.90;;;;;;5025507;28;20040;-68
2022/12/17 16:45:53;;;;;;;172.75;46.30;;;-0.20;99.90;;;;;;5026882;28;20032;-68
2022/12/17 16:48:21;;;;;;;171.63;47.85;;;-0.30;99.90;;;;;;5026638;28;20029;-68
2022/12/17 16:50:48;;;;;;;236.00;48.13;;;-0.40;99.90;;;;;;5026657;28;20021;-67
2022/12/17 16:53:14;;;;;;;202.70;49.90;;;-0.40;99.90;;;;;;5026050;28;20029;-67
2022/12/17 16:55:42;;;;;;;297.30;54.65;;;-0.30;99.90;;;;;;5024997;28;20017;-67
2022/12/17 16:58:07;;;;;;;188.15;49.00;;;-0.20;99.90;;;;;;5028554;28;20382;-67
2022/12/17 17:00:34;;;;;;;177.10;46.38;;;-0.10;99.90;;;;;;5028293;28;20025;-67
2022/12/17 17:03:00;;;;;;;144.23;41.97;;;-0.10;99.90;;;;;;5027672;28;20032;-67
2022/12/17 17:05:25;;;;;;;169.13;48.05;;;-0.10;99.90;;;;;;5029747;28;20021;-68
2022/12/17 17:07:51;;;;;;;148.32;43.20;;;0.10;99.90;;;;;;5029124;28;20029;-66
2022/12/17 17:10:16;;;;;;;174.15;45.40;;;0.00;99.90;;;;;;5029466;28;20390;-67
2022/12/17 17:12:42;;;;;;;163.60;42.45;;;0.00;99.90;;;;;;5030021;28;20041;-67
2022/12/17 17:15:08;;;;;;;162.35;44.35;;;-0.10;99.90;;;;;;5030342;28;20108;-67
2022/12/17 17:17:34;;;;;;;178.60;47.25;;;-0.10;99.90;;;;;;5023031;28;20030;-66
2022/12/17 17:19:59;;;;;;;162.75;47.72;;;0.00;99.90;;;;;;5022215;28;20036;-67
2022/12/17 17:22:25;;;;;;;187.57;48.47;;;0.00;99.90;;;;;;5025097;28;20021;-67
2022/12/17 17:24:50;;;;;;;168.38;46.40;;;0.00;99.90;;;;;;5026262;28;20425;-67
2022/12/17 17:27:16;;;;;;;196.02;46.75;;;-0.20;99.90;;;;;;5024910;28;20481;-67
2022/12/17 17:29:42;;;;;;;184.02;48.13;;;0.00;99.90;;;;;;5020853;28;20116;-67
2022/12/17 17:32:07;;;;;;;181.80;43.72;;;0.00;99.90;;;;;;5025290;28;20037;-67
2022/12/17 17:34:33;;;;;;;163.25;44.75;;;-0.10;99.90;;;;;;5024631;28;20033;-67
2022/12/17 17:36:59;;;;;;;151.50;45.88;;;-0.10;99.90;;;;;;5021816;28;20174;-67
2022/12/17 17:39:24;;;;;;;171.13;46.45;;;-0.10;99.90;;;;;;5020474;28;20120;-68
2022/12/17 17:41:50;;;;;;;157.02;46.85;;;-0.10;99.90;;;;;;5022820;28;20061;-68
2022/12/17 17:44:16;;;;;;;143.30;43.88;;;0.00;99.90;;;;;;5022567;28;20036;-67
2022/12/17 17:46:42;;;;;;;168.98;47.05;;;-0.10;99.90;;;;;;5024120;28;20025;-67
2022/12/17 17:49:08;;;;;;;168.13;44.55;;;-0.10;99.90;;;;;;5026153;28;20029;-67
2022/12/17 17:51:36;;;;;;;126.03;40.75;;;-0.20;99.90;;;;;;5024598;28;20563;-67
2022/12/17 17:54:03;;;;;;;168.00;42.35;;;-0.10;99.90;;;;;;5023343;28;20091;-67
2022/12/17 17:56:32;;;;;;;155.57;42.35;;;-0.20;99.90;;;;;;5021403;28;20462;-68
2022/12/17 17:59:04;;;;;;;150.15;40.95;;;-0.30;99.90;;;;;;5025608;28;20482;-67
2022/12/17 18:01:36;;;;;;;230.60;45.08;;;-0.30;99.90;;;;;;5021529;28;20463;-68
2022/12/17 18:04:03;;;;;;;147.45;41.65;;;-0.30;99.90;;;;;;5023341;28;20029;-68
2022/12/17 18:06:29;;;;;;;136.65;39.05;;;-0.30;99.90;;;;;;5021000;28;20033;-68
2022/12/17 18:08:56;;;;;;;127.88;38.72;;;-0.20;99.90;;;;;;5022139;28;20056;-67
2022/12/17 18:11:25;;;;;;;210.63;46.35;;;-0.20;99.90;;;;;;5024270;28;20378;-67
2022/12/17 18:13:54;;;;;;;157.25;46.28;;;-0.40;99.90;;;;;;5023665;28;20485;-68
2022/12/17 18:16:22;;;;;;;204.02;42.85;;;-0.40;99.90;;;;;;5022752;28;20025;-68
2022/12/17 18:18:48;;;;;;;182.77;43.03;;;-0.50;99.90;;;;;;5022654;28;20489;-68
2022/12/17 18:21:17;;;;;;;230.07;46.05;;;-0.50;99.90;;;;;;5025275;28;20021;-66
2022/12/17 18:23:44;;;;;;;138.50;37.67;;;-0.50;99.90;;;;;;5027729;28;20063;-66
2022/12/17 18:26:16;;;;;;;246.32;42.50;;;-0.50;99.90;;;;;;5027002;28;20970;-66
2022/12/17 18:28:43;;;;;;;167.45;40.75;;;-0.60;99.90;;;;;;5027837;28;20021;-66
2022/12/17 18:31:29;;;;;;;127.78;38.35;;;-0.70;99.90;;;;;;5026729;28;20053;-66
2022/12/17 18:33:57;;;;;;;147.07;43.33;;;-0.60;99.90;;;;;;5026418;28;20381;-67
2022/12/17 18:36:32;;;;;;;157.75;44.40;;;-0.50;99.90;;;;;;5026429;28;20121;-67
2022/12/17 18:39:06;;;;;;;151.52;44.78;;;-0.40;99.90;;;;;;5028271;28;20033;-66
2022/12/17 18:44:18;;;;;;;163.00;42.60;;;-0.30;99.90;;;;;;5026085;28;20513;-66
2022/12/17 18:46:44;;;;;;;161.63;44.80;;;-0.40;99.90;;;;;;5025584;28;20033;-65
2022/12/17 18:49:12;;;;;;;174.82;48.53;;;-0.40;99.90;;;;;;5026471;28;20025;-67
2022/12/17 18:51:39;;;;;;;149.88;47.13;;;-0.30;99.90;;;;;;5024100;28;20053;-65
2022/12/17 18:54:06;;;;;;;139.32;42.45;;;-0.30;99.90;;;;;;5025460;28;20431;-66
2022/12/17 18:56:34;;;;;;;156.18;44.60;;;-0.20;99.90;;;;;;5027753;28;20028;-66
2022/12/17 18:59:00;;;;;;;164.75;46.22;;;-0.10;99.90;;;;;;5029049;28;20476;-66
2022/12/17 19:01:27;;;;;;;141.10;41.10;;;-0.10;99.90;;;;;;5028437;28;20108;-66
2022/12/17 19:03:53;;;;;;;128.77;40.50;;;-0.20;99.90;;;;;;5026840;28;20028;-66
2022/12/17 19:06:20;;;;;;;135.93;39.25;;;-0.40;99.90;;;;;;5026612;28;20040;-66
2022/12/17 19:08:48;;;;;;;126.70;41.17;;;-0.30;99.90;;;;;;5025837;28;20615;-66
2022/12/17 19:11:17;;;;;;;118.63;38.13;;;-0.40;99.90;;;;;;5027572;28;20024;-66
2022/12/17 19:13:44;;;;;;;132.40;38.63;;;-0.40;99.90;;;;;;5026571;28;20112;-66
2022/12/17 19:16:11;;;;;;;122.10;38.88;;;-0.30;99.90;;;;;;5027256;28;20071;-66
2022/12/17 19:18:37;;;;;;;114.95;38.08;;;-0.40;99.90;;;;;;5026918;28;20033;-66
2022/12/17 19:21:05;;;;;;;122.05;37.95;;;-0.40;99.90;;;;;;5027893;28;20443;-66
2022/12/17 19:23:31;;;;;;;215.32;41.28;;;-0.40;99.90;;;;;;5022894;28;20413;-65
2022/12/17 19:26:07;;;;;;;137.82;39.25;;;-0.50;99.90;;;;;;5027100;28;20387;-66
2022/12/17 19:28:34;;;;;;;146.32;40.72;;;-0.40;99.90;;;;;;5027466;28;20112;-66
2022/12/17 19:31:00;;;;;;;127.10;38.30;;;-0.40;99.90;;;;;;5027572;28;20029;-65
2022/12/17 19:33:26;;;;;;;121.97;38.10;;;-0.30;99.90;;;;;;5028422;28;20030;-66
2022/12/17 19:36:07;;;;;;;131.85;38.42;;;-0.20;99.90;;;;;;5028952;28;20025;-66
2022/12/17 19:38:33;;;;;;;110.90;34.70;;;-0.20;99.90;;;;;;5029160;28;20462;-67
2022/12/17 19:41:13;;;;;;;134.35;40.15;;;-0.30;99.90;;;;;;5025777;28;20078;-67
2022/12/17 19:43:39;;;;;;;120.90;40.85;;;-0.30;99.90;;;;;;5026521;28;20025;-67
2022/12/17 19:46:08;;;;;;;112.88;35.75;;;-0.20;99.90;;;;;;5025315;28;20025;-67
2022/12/17 19:48:36;;;;;;;103.90;35.80;;;-0.40;99.90;;;;;;5025151;28;20136;-68
2022/12/17 19:51:03;;;;;;;143.30;37.63;;;-0.30;99.90;;;;;;5024384;28;20541;-68
2022/12/17 19:53:29;;;;;;;127.30;39.78;;;-0.40;99.90;;;;;;5025238;28;22317;-67
2022/12/17 19:55:56;;;;;;;117.68;37.25;;;-0.40;99.90;;;;;;5026165;28;20021;-68
2022/12/17 19:58:23;;;;;;;117.63;36.22;;;-0.50;99.90;;;;;;5026267;28;20385;-67
2022/12/17 20:00:49;;;;;;;107.20;37.20;;;-0.40;99.90;;;;;;5024996;28;20110;-68
2022/12/17 20:03:15;;;;;;;109.32;34.42;;;-0.50;99.90;;;;;;5025929;28;20043;-67
2022/12/17 20:05:45;;;;;;;104.50;35.70;;;-0.30;99.90;;;;;;5027529;28;20037;-67
2022/12/17 20:08:11;;;;;;;102.30;33.75;;;-0.40;99.90;;;;;;5028014;28;20030;-67
2022/12/17 20:10:37;;;;;;;109.85;34.30;;;-0.50;99.90;;;;;;5027827;28;20036;-68
2022/12/17 20:13:03;;;;;;;103.05;32.90;;;-0.50;99.90;;;;;;5028239;28;20041;-67
2022/12/17 20:15:28;;;;;;;108.60;34.78;;;-0.50;99.90;;;;;;5027642;28;20038;-67
2022/12/17 20:17:54;;;;;;;101.82;36.25;;;-0.50;99.90;;;;;;5024827;28;20108;-67
2022/12/17 20:20:20;;;;;;;103.57;35.80;;;-0.50;99.90;;;;;;5026340;28;20037;-68
2022/12/17 20:22:45;;;;;;;110.35;35.88;;;-0.60;99.90;;;;;;5025710;28;20396;-67
2022/12/17 20:25:11;;;;;;;102.40;37.47;;;-0.50;99.90;;;;;;5025786;28;20033;-65
2022/12/17 20:27:37;;;;;;;107.82;36.45;;;-0.60;99.90;;;;;;5025892;28;20065;-67
2022/12/17 20:30:04;;;;;;;109.05;36.80;;;-0.50;99.90;;;;;;5031371;28;20029;-67
2022/12/17 20:32:30;;;;;;;105.72;37.47;;;-0.50;99.90;;;;;;5031829;28;20520;-67
2022/12/17 20:34:56;;;;;;;99.75;35.65;;;-0.50;99.90;;;;;;5030564;28;20077;-67
2022/12/17 20:37:21;;;;;;;110.32;35.78;;;-0.60;99.90;;;;;;5026814;28;20039;-67
2022/12/17 20:39:47;;;;;;;106.85;36.80;;;-0.60;99.90;;;;;;5028640;28;20044;-67
2022/12/17 20:42:12;;;;;;;112.00;39.53;;;-0.60;99.90;;;;;;5029749;28;20104;-67
2022/12/17 20:44:38;;;;;;;109.00;35.53;;;-0.70;99.90;;;;;;5031072;28;20473;-67
2022/12/17 20:47:04;;;;;;;100.07;35.95;;;-0.70;99.90;;;;;;5029266;28;20065;-67
2022/12/17 20:49:30;;;;;;;102.10;37.53;;;-0.70;99.90;;;;;;5030483;28;20088;-66
2022/12/17 20:51:56;;;;;;;99.18;34.67;;;-0.80;99.90;;;;;;5029762;28;20430;-66
2022/12/17 20:54:21;;;;;;;109.03;37.70;;;-0.80;99.90;;;;;;5028854;28;20060;-66
2022/12/17 20:56:47;;;;;;;96.80;35.22;;;-0.80;99.90;;;;;;5027613;28;20025;-66
2022/12/17 20:59:15;;;;;;;107.13;36.35;;;-0.70;99.90;;;;;;5030357;28;20025;-66
2022/12/17 21:01:42;;;;;;;141.98;41.10;;;-0.80;99.90;;;;;;5029036;28;20466;-65
2022/12/17 21:04:07;;;;;;;135.77;41.53;;;-0.90;99.90;;;;;;5029838;28;20378;-66
2022/12/17 21:06:39;;;;;;;161.20;45.35;;;-0.90;99.90;;;;;;5028447;28;20041;-66
2022/12/17 21:09:05;;;;;;;179.23;48.70;;;-0.90;99.90;;;;;;5029688;28;20022;-66
2022/12/17 21:11:32;;;;;;;175.77;46.53;;;-0.90;99.90;;;;;;5028462;28;20061;-67
2022/12/17 21:14:01;;;;;;;191.60;49.67;;;-0.80;99.90;;;;;;5028721;28;20410;-66
2022/12/17 21:16:28;;;;;;;197.85;48.88;;;-0.80;99.90;;;;;;5028123;28;20053;-66
2022/12/17 21:18:55;;;;;;;180.18;47.13;;;-0.70;99.90;;;;;;5030681;28;20359;-67
2022/12/17 21:21:24;;;;;;;201.90;50.40;;;-0.60;99.90;;;;;;5028273;28;20021;-66
2022/12/17 21:23:50;;;;;;;188.02;50.05;;;-0.60;99.90;;;;;;5027437;28;20044;-67
2022/12/17 21:26:20;;;;;;;177.82;48.58;;;-0.60;99.90;;;;;;5028860;28;20477;-67
2022/12/17 21:28:47;;;;;;;185.73;47.20;;;-0.70;99.90;;;;;;5029499;28;20048;-66
2022/12/17 21:31:23;;;;;;;195.98;52.55;;;-0.70;99.90;;;;;;5020755;28;20470;-66
2022/12/17 21:33:50;;;;;;;187.20;48.28;;;-0.70;99.90;;;;;;5026151;28;20045;-65
2022/12/17 21:36:18;;;;;;;194.25;49.22;;;-0.80;99.90;;;;;;5027317;28;20909;-66
2022/12/17 21:38:44;;;;;;;190.38;52.60;;;-0.70;99.90;;;;;;5027510;28;20057;-66
2022/12/17 21:41:15;;;;;;;183.18;51.13;;;-0.70;99.90;;;;;;5022451;28;20496;-65
2022/12/17 21:43:41;;;;;;;178.60;47.20;;;-0.80;99.90;;;;;;5024919;28;20049;-66
2022/12/17 21:46:08;;;;;;;190.15;48.38;;;-0.70;99.90;;;;;;5027433;28;20037;-65
2022/12/17 21:48:37;;;;;;;164.50;44.25;;;-0.70;99.90;;;;;;5029107;28;20052;-65
2022/12/17 21:51:04;;;;;;;148.60;44.22;;;-0.90;99.90;;;;;;5021394;28;20017;-66
2022/12/17 21:53:30;;;;;;;160.88;47.58;;;-0.90;99.90;;;;;;5024791;28;20470;-67
2022/12/17 21:56:04;;;;;;;145.90;44.90;;;-0.90;99.90;;;;;;5022415;28;20033;-67
2022/12/17 21:58:30;;;;;;;143.60;43.42;;;-0.90;99.90;;;;;;5028082;28;20045;-67
2022/12/17 22:00:56;;;;;;;144.25;44.65;;;-0.90;99.90;;;;;;5027018;28;20469;-67
2022/12/17 22:03:21;;;;;;;132.68;41.03;;;-0.90;99.90;;;;;;5029525;28;20033;-67
2022/12/17 22:05:47;;;;;;;132.00;41.45;;;-1.00;99.90;;;;;;5021217;28;20018;-67
2022/12/17 22:08:12;;;;;;;123.82;39.30;;;-0.90;99.90;;;;;;5028017;28;20029;-67
2022/12/17 22:10:42;;;;;;;133.43;41.05;;;-0.90;99.90;;;;;;5028958;28;20485;-66
2022/12/17 22:15:54;;;;;;;122.38;38.85;;;-1.00;99.90;;;;;;5029869;28;20049;-67
2022/12/17 22:18:19;;;;;;;106.57;36.45;;;-1.00;99.90;;;;;;5029424;28;20042;-66
2022/12/17 22:20:54;;;;;;;109.57;38.75;;;-1.10;99.90;;;;;;5028540;28;20389;-67
2022/12/17 22:23:20;;;;;;;104.82;38.05;;;-1.20;99.90;;;;;;5028526;28;20026;-67
2022/12/17 22:25:45;;;;;;;109.53;38.95;;;-1.10;99.90;;;;;;5026650;28;20043;-67
2022/12/17 22:28:11;;;;;;;105.43;37.88;;;-1.10;99.90;;;;;;5028673;28;20024;-67
2022/12/17 22:33:21;;;;;;;91.28;35.15;;;-1.20;99.90;;;;;;5028399;28;20055;-67
2022/12/17 22:35:49;;;;;;;93.47;35.10;;;-1.10;99.90;;;;;;5028162;28;20104;-67
2022/12/17 22:38:14;;;;;;;92.72;34.42;;;-1.10;99.90;;;;;;5027985;28;20082;-66
2022/12/17 22:40:40;;;;;;;91.78;34.30;;;-1.20;99.90;;;;;;5028209;28;20030;-66
2022/12/17 22:45:50;;;;;;;77.07;30.77;;;-1.30;99.90;;;;;;5028332;28;20401;-67
2022/12/17 22:48:15;;;;;;;91.18;31.60;;;-1.20;99.90;;;;;;5026960;28;20041;-66
2022/12/17 22:50:42;;;;;;;86.57;31.95;;;-1.30;99.90;;;;;;5023152;28;20029;-67
2022/12/17 22:53:08;;;;;;;82.88;32.55;;;-1.30;99.90;;;;;;5027292;28;20085;-67
2022/12/17 22:55:34;;;;;;;81.43;33.03;;;-1.20;99.90;;;;;;5028148;28;20049;-66
2022/12/17 22:57:59;;;;;;;79.50;32.83;;;-1.30;99.90;;;;;;5027838;28;20052;-67
2022/12/17 23:00:30;;;;;;;81.90;32.13;;;-1.30;99.90;;;;;;5028758;28;20061;-67
2022/12/17 23:02:56;;;;;;;79.80;30.90;;;-1.20;99.90;;;;;;5028678;28;20080;-67
2022/12/17 23:05:23;;;;;;;81.53;31.00;;;-1.30;99.90;;;;;;5028105;28;20020;-67
2022/12/17 23:07:49;;;;;;;85.05;33.63;;;-1.30;99.90;;;;;;5027035;28;20033;-67
2022/12/17 23:10:15;;;;;;;76.50;29.83;;;-1.50;99.90;;;;;;5028691;28;20064;-67
2022/12/17 23:12:50;;;;;;;77.18;32.88;;;-1.50;99.90;;;;;;5028677;28;20511;-67
2022/12/17 23:15:23;;;;;;;78.65;33.55;;;-1.60;99.90;;;;;;5028302;28;20124;-66
2022/12/17 23:17:51;;;;;;;77.18;31.85;;;-1.50;99.90;;;;;;5028189;28;20064;-67
2022/12/17 23:20:17;;;;;;;79.20;33.00;;;-1.60;99.90;;;;;;5026274;28;20405;-67
2022/12/17 23:22:42;;;;;;;81.75;34.58;;;-1.60;99.90;;;;;;5029128;28;20034;-67
2022/12/17 23:25:09;;;;;;;74.60;31.73;;;-1.70;99.90;;;;;;5029038;28;20350;-66
2022/12/17 23:27:35;;;;;;;89.40;34.03;;;-1.70;99.90;;;;;;5025236;28;20040;-67
2022/12/17 23:30:00;;;;;;;76.60;31.33;;;-1.70;99.90;;;;;;5027305;28;20428;-66
2022/12/17 23:32:26;;;;;;;83.05;31.40;;;-1.70;99.90;;;;;;5025904;28;20037;-67
2022/12/17 23:34:51;;;;;;;79.00;32.08;;;-1.70;99.90;;;;;;5028738;28;20099;-67
2022/12/17 23:37:17;;;;;;;81.38;29.98;;;-1.70;99.90;;;;;;5029129;28;20108;-66
2022/12/17 23:39:43;;;;;;;78.75;30.40;;;-1.70;99.90;;;;;;5028371;28;20025;-66
2022/12/17 23:42:08;;;;;;;75.00;31.20;;;-1.80;99.90;;;;;;5028385;28;20062;-67
2022/12/17 23:44:34;;;;;;;78.10;31.38;;;-2.00;99.90;;;;;;5029148;28;20472;-66
2022/12/17 23:47:00;;;;;;;88.10;34.40;;;-2.00;99.90;;;;;;5028605;28;20029;-66
2022/12/17 23:49:25;;;;;;;78.65;31.98;;;-1.90;99.90;;;;;;5028594;28;20452;-66
2022/12/17 23:51:51;;;;;;;79.30;31.40;;;-1.90;99.90;;;;;;5022408;28;20033;-67
2022/12/17 23:54:16;;;;;;;82.53;33.17;;;-2.00;99.90;;;;;;5025921;28;20469;-67
2022/12/17 23:56:43;;;;;;;79.35;32.63;;;-2.00;99.90;;;;;;5025101;28;20017;-67
2022/12/17 23:59:09;;;;;;;84.28;34.08;;;-2.00;99.90;;;;;;5026546;28;20484;-67
